createdAt,value
2019-06-08T00:02:20.844Z,11.90
2019-06-08T00:04:47.375Z,11.90
2019-06-08T00:07:14.621Z,11.90
2019-06-08T00:09:41.236Z,11.90
2019-06-08T00:12:07.763Z,11.90
2019-06-08T00:14:34.285Z,11.90
2019-06-08T00:17:00.871Z,11.90
2019-06-08T00:19:27.353Z,11.90
2019-06-08T00:21:53.919Z,11.90
2019-06-08T00:24:20.428Z,11.90
2019-06-08T00:26:47.128Z,11.90
2019-06-08T00:29:14.137Z,11.90
2019-06-08T00:31:40.685Z,11.80
2019-06-08T00:34:07.319Z,11.90
2019-06-08T00:36:33.850Z,11.90
2019-06-08T00:39:00.427Z,11.90
2019-06-08T00:41:26.955Z,11.90
2019-06-08T00:43:53.501Z,11.90
2019-06-08T00:46:21.331Z,11.80
2019-06-08T00:48:47.953Z,11.90
2019-06-08T00:51:14.594Z,11.90
2019-06-08T00:53:41.117Z,11.90
2019-06-08T00:56:07.664Z,11.90
2019-06-08T00:58:34.196Z,11.90
2019-06-08T01:01:00.815Z,11.90
2019-06-08T01:03:27.350Z,11.90
2019-06-08T01:05:53.886Z,11.90
2019-06-08T01:08:22.085Z,11.90
2019-06-08T01:10:48.874Z,11.90
2019-06-08T01:13:16.060Z,12.00
2019-06-08T01:15:42.593Z,12.00
2019-06-08T01:18:09.120Z,12.00
2019-06-08T01:20:35.643Z,12.10
2019-06-08T01:23:02.169Z,12.10
2019-06-08T01:25:30.042Z,12.20
2019-06-08T01:27:56.660Z,12.30
2019-06-08T01:30:24.229Z,12.40
2019-06-08T01:32:51.856Z,12.40
2019-06-08T01:35:18.500Z,12.50
2019-06-08T01:37:45.033Z,12.50
2019-06-08T01:40:12.650Z,12.50
2019-06-08T01:42:39.178Z,12.60
2019-06-08T01:45:06.530Z,12.60
2019-06-08T01:47:33.175Z,12.60
2019-06-08T01:49:59.740Z,12.70
2019-06-08T01:52:26.625Z,12.70
2019-06-08T01:54:53.198Z,12.70
2019-06-08T01:57:19.722Z,12.70
2019-06-08T01:59:46.266Z,12.70
2019-06-08T02:02:12.794Z,12.70
2019-06-08T02:04:39.329Z,12.60
2019-06-08T02:07:05.903Z,12.60
2019-06-08T02:09:32.779Z,12.60
2019-06-08T02:11:59.346Z,12.50
2019-06-08T02:14:27.095Z,12.50
2019-06-08T02:16:53.741Z,12.50
2019-06-08T02:19:20.277Z,12.50
2019-06-08T02:21:46.802Z,12.50
2019-06-08T02:24:13.327Z,12.40
2019-06-08T02:26:39.856Z,12.40
2019-06-08T02:29:06.394Z,12.40
2019-06-08T02:31:34.786Z,12.40
2019-06-08T02:34:01.363Z,12.40
2019-06-08T02:36:28.897Z,12.40
2019-06-08T02:38:56.407Z,12.40
2019-06-08T02:41:22.920Z,12.40
2019-06-08T02:43:49.453Z,12.40
2019-06-08T02:46:15.983Z,12.40
2019-06-08T02:49:02.689Z,12.40
2019-06-08T02:51:12.021Z,12.30
2019-06-08T02:53:41.406Z,12.30
2019-06-08T02:56:12.073Z,12.40
2019-06-08T02:58:41.117Z,12.30
2019-06-08T03:01:08.246Z,12.30
2019-06-08T03:03:35.832Z,12.20
2019-06-08T03:06:02.821Z,12.20
2019-06-08T03:08:36.138Z,12.30
2019-06-08T03:11:03.892Z,12.30
2019-06-08T03:13:33.577Z,12.30
2019-06-08T03:16:01.719Z,12.30
2019-06-08T03:18:28.303Z,12.30
2019-06-08T03:20:54.872Z,12.30
2019-06-08T03:23:21.396Z,12.30
2019-06-08T03:25:53.046Z,12.30
2019-06-08T03:28:16.356Z,12.30
2019-06-08T03:30:52.943Z,12.30
2019-06-08T03:33:11.326Z,12.30
2019-06-08T03:35:46.586Z,12.30
2019-06-08T03:38:06.308Z,12.30
2019-06-08T03:40:33.902Z,12.40
2019-06-08T03:43:02.817Z,12.30
2019-06-08T03:45:29.351Z,12.30
2019-06-08T03:47:55.875Z,12.30
2019-06-08T03:50:22.435Z,12.30
2019-06-08T03:52:48.957Z,12.30
2019-06-08T03:55:15.708Z,12.30
2019-06-08T03:57:42.229Z,12.30
2019-06-08T04:00:13.602Z,12.30
2019-06-08T04:02:38.373Z,12.30
2019-06-08T04:05:06.143Z,12.30
2019-06-08T04:07:32.787Z,12.30
2019-06-08T04:09:59.317Z,12.30
2019-06-08T04:12:25.838Z,12.30
2019-06-08T04:14:52.359Z,12.30
2019-06-08T04:17:18.907Z,12.30
2019-06-08T04:20:08.606Z,12.30
2019-06-08T04:22:13.857Z,12.40
2019-06-08T04:24:42.317Z,12.30
2019-06-08T04:27:08.861Z,12.40
2019-06-08T04:29:35.398Z,12.40
2019-06-08T04:32:02.049Z,12.30
2019-06-08T04:34:28.573Z,12.30
2019-06-08T04:36:55.094Z,12.30
2019-06-08T04:39:21.609Z,12.30
2019-06-08T04:41:48.146Z,12.30
2019-06-08T04:44:14.692Z,12.30
2019-06-08T04:46:43.028Z,12.20
2019-06-08T04:49:09.647Z,12.20
2019-06-08T04:51:36.174Z,12.10
2019-06-08T04:54:02.799Z,12.10
2019-06-08T04:56:29.322Z,12.00
2019-06-08T04:58:55.878Z,12.00
2019-06-08T05:01:22.431Z,12.10
2019-06-08T05:03:49.955Z,12.10
2019-06-08T05:06:16.843Z,12.00
2019-06-08T05:08:43.373Z,12.00
2019-06-08T05:11:09.901Z,12.00
2019-06-08T05:13:36.417Z,12.00
2019-06-08T05:16:03.210Z,11.90
2019-06-08T05:18:29.813Z,11.90
2019-06-08T05:20:56.328Z,11.90
2019-06-08T05:23:22.869Z,11.90
2019-06-08T05:25:49.465Z,11.90
2019-06-08T05:28:15.988Z,11.80
2019-06-08T05:30:43.221Z,11.80
2019-06-08T05:33:09.847Z,11.80
2019-06-08T05:35:36.392Z,11.70
2019-06-08T05:38:03.997Z,11.70
2019-06-08T05:40:30.514Z,11.70
2019-06-08T05:42:57.056Z,11.90
2019-06-08T05:45:23.593Z,11.80
2019-06-08T05:47:50.242Z,11.90
2019-06-08T05:50:16.864Z,12.00
2019-06-08T05:52:44.201Z,12.10
2019-06-08T05:55:11.043Z,12.10
2019-06-08T05:57:37.605Z,12.30
2019-06-08T06:00:09.435Z,12.50
2019-06-08T06:02:36.187Z,12.60
2019-06-08T06:05:05.204Z,12.60
2019-06-08T06:07:31.733Z,12.70
2019-06-08T06:09:58.252Z,12.80
2019-06-08T06:12:24.893Z,12.90
2019-06-08T06:14:51.413Z,12.90
2019-06-08T06:17:17.956Z,13.00
2019-06-08T06:19:45.185Z,13.10
2019-06-08T06:22:11.769Z,13.20
2019-06-08T06:24:38.700Z,13.40
2019-06-08T06:27:05.222Z,13.50
2019-06-08T06:29:31.853Z,13.60
2019-06-08T06:31:58.383Z,13.60
2019-06-08T06:34:24.966Z,13.70
2019-06-08T06:36:52.194Z,13.70
2019-06-08T06:39:18.972Z,13.70
2019-06-08T06:41:45.968Z,13.70
2019-06-08T06:44:12.660Z,13.80
2019-06-08T06:46:39.742Z,13.80
2019-06-08T06:49:06.287Z,13.90
2019-06-08T06:51:33.988Z,13.90
2019-06-08T06:54:00.647Z,13.90
2019-06-08T06:56:27.167Z,13.90
2019-06-08T06:58:53.873Z,14.00
2019-06-08T07:01:20.583Z,14.00
2019-06-08T07:03:47.969Z,14.10
2019-06-08T07:06:14.578Z,14.10
2019-06-08T07:08:42.089Z,14.10
2019-06-08T07:11:08.666Z,14.10
2019-06-08T07:13:35.191Z,14.20
2019-06-08T07:16:17.230Z,14.20
2019-06-08T07:18:30.325Z,14.20
2019-06-08T07:20:56.835Z,14.30
2019-06-08T07:23:24.108Z,14.40
2019-06-08T07:25:50.678Z,14.30
2019-06-08T07:28:17.267Z,14.30
2019-06-08T07:30:43.793Z,14.40
2019-06-08T07:33:10.310Z,14.50
2019-06-08T07:35:36.900Z,14.50
2019-06-08T07:38:03.547Z,14.60
2019-06-08T07:40:30.102Z,14.80
2019-06-08T07:42:56.868Z,15.00
2019-06-08T07:45:23.549Z,15.10
2019-06-08T07:47:51.924Z,15.30
2019-06-08T07:50:18.591Z,15.40
2019-06-08T07:52:45.122Z,15.50
2019-06-08T07:55:11.960Z,15.50
2019-06-08T07:57:38.474Z,15.40
2019-06-08T08:00:09.594Z,15.40
2019-06-08T08:02:34.748Z,15.50
2019-06-08T08:05:01.692Z,15.50
2019-06-08T08:07:28.220Z,15.70
2019-06-08T08:09:54.906Z,15.80
2019-06-08T08:12:21.488Z,15.90
2019-06-08T08:14:48.737Z,16.00
2019-06-08T08:17:15.389Z,16.00
2019-06-08T08:19:41.935Z,16.00
2019-06-08T08:22:22.346Z,16.00
2019-06-08T08:24:38.680Z,16.00
2019-06-08T08:27:08.180Z,16.10
2019-06-08T08:29:33.785Z,16.10
2019-06-08T08:32:01.815Z,16.10
2019-06-08T08:34:28.652Z,16.20
2019-06-08T08:36:58.150Z,16.30
2019-06-08T08:39:23.894Z,16.40
2019-06-08T08:41:56.323Z,16.40
2019-06-08T08:44:19.182Z,16.40
2019-06-08T08:46:45.733Z,16.50
2019-06-08T08:49:13.254Z,16.70
2019-06-08T08:51:39.773Z,16.70
2019-06-08T08:54:08.552Z,16.70
2019-06-08T08:56:34.724Z,16.80
2019-06-08T08:59:02.744Z,16.80
2019-06-08T09:01:29.480Z,16.90
2019-06-08T09:04:00.940Z,16.90
2019-06-08T09:06:24.447Z,16.90
2019-06-08T09:08:52.007Z,16.90
2019-06-08T09:11:19.024Z,17.10
2019-06-08T09:13:45.546Z,17.30
2019-06-08T09:16:12.074Z,17.40
2019-06-08T09:18:38.622Z,17.40
2019-06-08T09:21:08.113Z,17.40
2019-06-08T09:23:33.840Z,17.50
2019-06-08T09:26:07.628Z,17.50
2019-06-08T09:28:28.897Z,17.60
2019-06-08T09:30:56.738Z,17.70
2019-06-08T09:33:23.938Z,17.70
2019-06-08T09:35:50.495Z,17.60
2019-06-08T09:38:18.597Z,17.70
2019-06-08T09:40:45.348Z,17.70
2019-06-08T09:43:13.180Z,17.80
2019-06-08T09:45:39.949Z,17.80
2019-06-08T09:48:09.236Z,17.70
2019-06-08T09:50:35.002Z,17.60
2019-06-08T09:53:14.839Z,17.70
2019-06-08T09:55:30.037Z,17.60
2019-06-08T09:58:01.868Z,17.50
2019-06-08T10:00:28.831Z,17.50
2019-06-08T10:02:55.200Z,17.70
2019-06-08T10:05:22.381Z,17.80
2019-06-08T10:07:48.905Z,17.80
2019-06-08T10:10:18.229Z,17.80
2019-06-08T10:12:48.155Z,17.70
2019-06-08T10:15:14.183Z,17.80
2019-06-08T10:17:40.724Z,17.90
2019-06-08T10:20:10.058Z,18.10
2019-06-08T10:22:36.388Z,18.30
2019-06-08T10:25:08.735Z,18.50
2019-06-08T10:27:35.014Z,18.70
2019-06-08T10:30:05.828Z,18.70
2019-06-08T10:32:32.889Z,18.70
2019-06-08T10:35:02.217Z,18.60
2019-06-08T10:37:28.438Z,18.80
2019-06-08T10:39:56.451Z,19.00
2019-06-08T10:42:23.453Z,19.10
2019-06-08T10:44:49.997Z,19.10
2019-06-08T10:47:16.541Z,19.10
2019-06-08T10:49:43.057Z,19.00
2019-06-08T10:52:11.792Z,19.10
2019-06-08T10:54:38.113Z,19.10
2019-06-08T10:57:07.227Z,19.10
2019-06-08T10:59:36.515Z,19.10
2019-06-08T11:02:04.960Z,19.30
2019-06-08T11:04:30.156Z,19.30
2019-06-08T11:07:00.700Z,19.30
2019-06-08T11:09:28.331Z,19.30
2019-06-08T11:11:53.714Z,19.30
2019-06-08T11:14:22.758Z,19.20
2019-06-08T11:16:49.550Z,19.30
2019-06-08T11:19:17.986Z,19.40
2019-06-08T11:21:44.524Z,19.50
2019-06-08T11:24:21.525Z,19.60
2019-06-08T11:26:40.369Z,19.70
2019-06-08T11:29:10.339Z,19.70
2019-06-08T11:31:35.492Z,19.60
2019-06-08T11:34:02.680Z,19.70
2019-06-08T11:36:30.400Z,19.70
2019-06-08T11:38:59.222Z,19.70
2019-06-08T11:41:27.910Z,19.70
2019-06-08T11:43:54.518Z,19.70
2019-06-08T11:46:22.088Z,19.80
2019-06-08T11:48:48.811Z,19.90
2019-06-08T11:51:15.339Z,19.80
2019-06-08T11:53:41.879Z,19.70
2019-06-08T11:56:10.023Z,19.80
2019-06-08T11:58:38.558Z,20.00
2019-06-08T12:01:11.595Z,20.30
2019-06-08T12:03:38.563Z,20.50
2019-06-08T12:06:06.180Z,20.70
2019-06-08T12:08:33.250Z,20.70
2019-06-08T12:11:02.077Z,20.50
2019-06-08T12:13:28.245Z,20.40
2019-06-08T12:15:54.858Z,20.30
2019-06-08T12:18:21.385Z,20.30
2019-06-08T12:20:48.815Z,20.20
2019-06-08T12:23:15.552Z,20.20
2019-06-08T12:25:42.081Z,20.30
2019-06-08T12:28:08.617Z,20.30
2019-06-08T12:30:35.138Z,20.20
2019-06-08T12:33:01.676Z,20.10
2019-06-08T12:35:28.412Z,20.10
2019-06-08T12:37:58.104Z,20.00
2019-06-08T12:40:24.619Z,20.00
2019-06-08T12:42:51.471Z,20.00
2019-06-08T12:45:20.005Z,20.00
2019-06-08T12:47:47.897Z,19.90
2019-06-08T12:50:15.330Z,19.80
2019-06-08T12:52:43.298Z,19.80
2019-06-08T12:55:14.344Z,19.70
2019-06-08T12:57:38.758Z,19.70
2019-06-08T13:00:08.466Z,19.70
2019-06-08T13:02:35.609Z,19.80
2019-06-08T13:05:04.937Z,19.90
2019-06-08T13:07:31.468Z,19.90
2019-06-08T13:09:58.392Z,20.00
2019-06-08T13:12:25.029Z,20.20
2019-06-08T13:14:51.698Z,20.40
2019-06-08T13:17:19.880Z,20.50
2019-06-08T13:19:48.199Z,20.50
2019-06-08T13:22:14.934Z,20.50
2019-06-08T13:24:41.552Z,20.60
2019-06-08T13:27:12.174Z,20.70
2019-06-08T13:29:36.512Z,20.70
2019-06-08T13:32:03.128Z,20.60
2019-06-08T13:34:29.662Z,20.40
2019-06-08T13:36:56.182Z,20.30
2019-06-08T13:39:23.230Z,20.20
2019-06-08T13:41:52.059Z,20.10
2019-06-08T13:44:18.316Z,20.20
2019-06-08T13:46:44.866Z,20.20
2019-06-08T13:49:12.257Z,20.20
2019-06-08T13:51:38.854Z,20.00
2019-06-08T13:54:05.379Z,20.00
2019-06-08T13:56:31.932Z,19.90
2019-06-08T13:58:58.454Z,19.90
2019-06-08T14:01:30.375Z,19.80
2019-06-08T14:03:53.702Z,19.80
2019-06-08T14:06:21.791Z,19.80
2019-06-08T14:08:49.849Z,19.80
2019-06-08T14:11:18.738Z,19.90
2019-06-08T14:13:44.865Z,19.80
2019-06-08T14:16:11.783Z,19.80
2019-06-08T14:18:38.627Z,19.80
2019-06-08T14:21:05.313Z,19.70
2019-06-08T14:23:31.829Z,19.60
2019-06-08T14:26:00.237Z,19.60
2019-06-08T14:28:28.995Z,19.60
2019-06-08T14:30:55.237Z,19.60
2019-06-08T14:33:26.735Z,19.60
2019-06-08T14:35:50.277Z,19.50
2019-06-08T14:38:22.505Z,19.50
2019-06-08T14:40:47.393Z,19.60
2019-06-08T14:43:13.826Z,19.60
2019-06-08T14:45:40.369Z,19.70
2019-06-08T14:48:06.930Z,19.80
2019-06-08T14:50:33.854Z,20.00
2019-06-08T14:53:00.376Z,20.10
2019-06-08T14:55:33.241Z,20.10
2019-06-08T14:57:57.853Z,20.20
2019-06-08T15:00:24.497Z,20.20
2019-06-08T15:02:52.121Z,20.10
2019-06-08T15:05:19.888Z,20.10
2019-06-08T15:07:47.796Z,20.00
2019-06-08T15:10:14.674Z,19.90
2019-06-08T15:12:41.193Z,19.90
2019-06-08T15:15:11.041Z,19.80
2019-06-08T15:17:37.964Z,19.70
2019-06-08T15:20:08.645Z,19.80
2019-06-08T15:22:34.617Z,19.80
2019-06-08T15:25:01.365Z,19.70
2019-06-08T15:27:30.417Z,19.70
2019-06-08T15:29:58.517Z,19.70
2019-06-08T15:32:24.912Z,19.80
2019-06-08T15:34:53.165Z,19.90
2019-06-08T15:37:19.685Z,19.90
2019-06-08T15:39:51.167Z,19.90
2019-06-08T15:42:14.639Z,19.90
2019-06-08T15:44:41.234Z,19.90
2019-06-08T15:47:08.196Z,19.90
2019-06-08T15:49:35.103Z,19.90
2019-06-08T15:52:01.671Z,19.90
2019-06-08T15:54:33.575Z,19.90
2019-06-08T15:56:58.517Z,19.90
2019-06-08T15:59:25.067Z,19.90
2019-06-08T16:01:51.598Z,19.90
2019-06-08T16:04:18.112Z,19.90
2019-06-08T16:06:44.703Z,19.80
2019-06-08T16:09:12.205Z,19.70
2019-06-08T16:11:38.742Z,19.70
2019-06-08T16:14:05.466Z,19.70
2019-06-08T16:16:33.378Z,19.80
2019-06-08T16:18:59.975Z,19.70
2019-06-08T16:21:27.308Z,19.70
2019-06-08T16:23:55.842Z,19.60
2019-06-08T16:26:22.762Z,19.60
2019-06-08T16:28:49.287Z,19.50
2019-06-08T16:31:15.832Z,19.40
2019-06-08T16:33:44.242Z,19.50
2019-06-08T16:36:10.826Z,19.40
2019-06-08T16:38:38.340Z,19.40
2019-06-08T16:41:05.000Z,19.40
2019-06-08T16:43:32.970Z,19.50
2019-06-08T16:45:59.552Z,19.40
2019-06-08T16:48:26.078Z,19.30
2019-06-08T16:50:59.588Z,19.30
2019-06-08T16:53:27.350Z,19.30
2019-06-08T16:55:54.054Z,19.20
2019-06-08T16:58:20.627Z,19.20
2019-06-08T17:00:59.936Z,19.20
2019-06-08T17:03:40.743Z,19.30
2019-06-08T17:06:07.303Z,19.00
2019-06-08T17:08:37.029Z,19.00
2019-06-08T17:11:02.286Z,19.00
2019-06-08T17:13:30.051Z,19.00
2019-06-08T17:15:56.760Z,19.00
2019-06-08T17:18:23.306Z,19.00
2019-06-08T17:20:49.834Z,18.90
2019-06-08T17:23:17.065Z,18.90
2019-06-08T17:25:45.797Z,18.80
2019-06-08T17:28:12.318Z,18.70
2019-06-08T17:30:39.400Z,18.70
2019-06-08T17:33:06.097Z,18.70
2019-06-08T17:35:35.560Z,18.70
2019-06-08T17:38:02.375Z,18.60
2019-06-08T17:40:28.884Z,18.60
2019-06-08T17:42:55.641Z,18.50
2019-06-08T17:45:25.079Z,18.50
2019-06-08T17:47:53.523Z,18.50
2019-06-08T17:50:20.250Z,18.40
2019-06-08T17:52:48.951Z,18.40
2019-06-08T17:55:26.029Z,18.40
2019-06-08T17:57:54.579Z,18.30
2019-06-08T18:00:21.846Z,18.30
2019-06-08T18:02:48.505Z,18.20
2019-06-08T18:05:17.723Z,18.20
2019-06-08T18:07:45.678Z,18.10
2019-06-08T18:10:12.613Z,18.10
2019-06-08T18:12:42.569Z,18.00
2019-06-08T18:15:11.593Z,18.00
2019-06-08T18:17:42.628Z,18.00
2019-06-08T18:20:13.335Z,17.90
2019-06-08T18:22:42.520Z,17.90
2019-06-08T18:25:10.189Z,17.80
2019-06-08T18:27:39.147Z,17.70
2019-06-08T18:30:08.968Z,17.60
2019-06-08T18:32:40.544Z,17.60
2019-06-08T18:35:07.801Z,17.40
2019-06-08T18:37:34.862Z,17.30
2019-06-08T18:40:07.208Z,17.30
2019-06-08T18:42:35.280Z,17.20
2019-06-08T18:45:04.799Z,17.20
2019-06-08T18:47:31.329Z,17.10
2019-06-08T18:49:57.915Z,17.00
2019-06-08T18:52:24.445Z,17.00
2019-06-08T18:54:50.971Z,16.90
2019-06-08T18:57:17.705Z,16.80
2019-06-08T18:59:48.674Z,16.70
2019-06-08T19:02:12.884Z,16.60
2019-06-08T19:04:41.545Z,16.50
2019-06-08T19:07:08.022Z,16.50
2019-06-08T19:09:37.489Z,16.40
2019-06-08T19:12:03.921Z,16.40
2019-06-08T19:14:30.658Z,16.30
2019-06-08T19:16:58.315Z,16.30
2019-06-08T19:19:24.864Z,16.20
2019-06-08T19:21:51.382Z,16.20
2019-06-08T19:24:18.423Z,16.20
2019-06-08T19:26:45.929Z,16.10
2019-06-08T19:29:13.622Z,16.00
2019-06-08T19:31:42.316Z,16.00
2019-06-08T19:34:08.576Z,16.00
2019-06-08T19:36:35.098Z,15.90
2019-06-08T19:39:01.721Z,15.90
2019-06-08T19:41:28.464Z,15.80
2019-06-08T19:43:55.034Z,15.80
2019-06-08T19:46:21.609Z,15.70
2019-06-08T19:48:53.868Z,15.70
2019-06-08T19:51:17.162Z,15.70
2019-06-08T19:53:46.585Z,15.60
2019-06-08T19:56:12.290Z,15.60
2019-06-08T19:58:53.523Z,15.50
2019-06-08T20:01:07.448Z,15.40
2019-06-08T20:03:33.994Z,15.30
2019-06-08T20:06:00.519Z,15.20
2019-06-08T20:08:28.586Z,15.20
2019-06-08T20:10:57.416Z,15.10
2019-06-08T20:13:23.964Z,15.10
2019-06-08T20:15:57.130Z,15.00
2019-06-08T20:18:18.918Z,14.90
2019-06-08T20:20:46.533Z,14.90
2019-06-08T20:23:13.890Z,14.80
2019-06-08T20:25:41.092Z,14.80
2019-06-08T20:28:08.014Z,14.70
2019-06-08T20:30:34.692Z,14.60
2019-06-08T20:33:01.221Z,14.60
2019-06-08T20:35:28.161Z,14.60
2019-06-08T20:37:55.131Z,14.50
2019-06-08T20:40:28.251Z,14.50
2019-06-08T20:42:54.823Z,14.50
2019-06-08T20:45:21.335Z,14.50
2019-06-08T20:47:51.067Z,14.40
2019-06-08T20:50:17.660Z,14.40
2019-06-08T20:52:44.438Z,14.40
2019-06-08T20:55:11.107Z,14.40
2019-06-08T20:57:37.647Z,14.50
2019-06-08T21:00:09.224Z,14.40
2019-06-08T21:02:37.100Z,14.40
2019-06-08T21:05:07.660Z,14.30
2019-06-08T21:07:34.021Z,14.20
2019-06-08T21:10:00.549Z,14.20
2019-06-08T21:12:28.333Z,14.10
2019-06-08T21:14:55.507Z,14.20
2019-06-08T21:17:22.137Z,14.20
2019-06-08T21:19:48.853Z,14.20
2019-06-08T21:22:15.394Z,14.20
2019-06-08T21:24:41.921Z,14.10
2019-06-08T21:27:08.448Z,14.10
2019-06-08T21:29:47.453Z,14.00
2019-06-08T21:32:03.440Z,14.00
2019-06-08T21:34:29.976Z,14.00
2019-06-08T21:37:00.537Z,14.00
2019-06-08T21:39:24.940Z,13.90
2019-06-08T21:41:54.878Z,13.90
2019-06-08T21:44:19.907Z,13.80
2019-06-08T21:46:48.685Z,13.80
2019-06-08T21:49:14.864Z,13.70
2019-06-08T21:51:41.483Z,13.70
2019-06-08T21:54:08.012Z,13.70
2019-06-08T21:56:36.931Z,13.60
2019-06-08T21:59:03.088Z,13.60
2019-06-08T22:01:30.809Z,13.60
2019-06-08T22:03:58.989Z,13.50
2019-06-08T22:06:25.775Z,13.50
2019-06-08T22:08:52.308Z,13.40
2019-06-08T22:11:18.850Z,13.40
2019-06-08T22:13:47.475Z,13.40
2019-06-08T22:16:13.952Z,13.40
2019-06-08T22:18:41.434Z,13.30
2019-06-08T22:21:08.325Z,13.30
2019-06-08T22:23:34.882Z,13.30
2019-06-08T22:26:01.419Z,13.20
2019-06-08T22:28:27.938Z,13.20
2019-06-08T22:30:56.173Z,13.20
2019-06-08T22:33:22.967Z,13.10
2019-06-08T22:35:49.491Z,13.10
2019-06-08T22:38:17.718Z,13.00
2019-06-08T22:40:44.348Z,13.00
2019-06-08T22:43:10.969Z,13.00
2019-06-08T22:45:37.695Z,12.90
2019-06-08T22:48:04.294Z,12.90
2019-06-08T22:50:30.870Z,12.90
2019-06-08T22:52:59.509Z,12.80
2019-06-08T22:55:27.817Z,12.80
2019-06-08T22:57:55.326Z,12.80
2019-06-08T23:00:24.811Z,12.70
2019-06-08T23:02:50.429Z,12.70
2019-06-08T23:05:18.581Z,12.70
2019-06-08T23:07:45.411Z,12.60
2019-06-08T23:10:12.531Z,12.60
2019-06-08T23:12:39.063Z,12.60
2019-06-08T23:15:07.790Z,12.50
2019-06-08T23:17:34.421Z,12.50
2019-06-08T23:20:03.587Z,12.50
2019-06-08T23:22:30.187Z,12.50
2019-06-08T23:24:59.382Z,12.40
2019-06-08T23:27:27.042Z,12.40
2019-06-08T23:29:53.571Z,12.40
2019-06-08T23:32:20.113Z,12.40
2019-06-08T23:34:47.811Z,12.40
2019-06-08T23:37:14.530Z,12.40
2019-06-08T23:39:41.117Z,12.40
2019-06-08T23:42:08.062Z,12.30
2019-06-08T23:44:34.690Z,12.30
2019-06-08T23:47:02.734Z,12.30
2019-06-08T23:49:29.337Z,12.30
2019-06-08T23:51:58.127Z,12.30
2019-06-08T23:54:24.312Z,12.20
2019-06-08T23:56:50.853Z,12.20
2019-06-08T23:59:17.872Z,12.20
